sensor_id;sensor_type;location;lat;lon;timestamp;pressure;altitude;pressure_sealevel;temperature;humidity
11124;BME280;5616;42.692;23.312;2024-02-21T00:01:22;95965.44;;;8.08;65.30
11124;BME280;5616;42.692;23.312;2024-02-21T00:03:47;95957.22;;;8.13;65.25
11124;BME280;5616;42.692;23.312;2024-02-21T00:06:13;95957.22;;;8.13;65.27
11124;BME280;5616;42.692;23.312;2024-02-21T00:08:38;95952.44;;;8.10;65.30
11124;BME280;5616;42.692;23.312;2024-02-21T00:11:04;95955.44;;;8.13;64.62
11124;BME280;5616;42.692;23.312;2024-02-21T00:13:29;95950.16;;;8.15;64.23
11124;BME280;5616;42.692;23.312;2024-02-21T00:15:55;95952.72;;;8.15;65.52
11124;BME280;5616;42.692;23.312;2024-02-21T00:18:21;95959.53;;;8.08;65.37
11124;BME280;5616;42.692;23.312;2024-02-21T00:20:46;95950.84;;;8.09;65.09
11124;BME280;5616;42.692;23.312;2024-02-21T00:23:12;95952.72;;;8.15;64.70
11124;BME280;5616;42.692;23.312;2024-02-21T00:25:37;95949.53;;;8.13;65.23
11124;BME280;5616;42.692;23.312;2024-02-21T00:28:03;95951.91;;;8.14;64.98
11124;BME280;5616;42.692;23.312;2024-02-21T00:30:28;95948.56;;;8.14;65.08
11124;BME280;5616;42.692;23.312;2024-02-21T00:32:54;95948.56;;;8.14;65.43
11124;BME280;5616;42.692;23.312;2024-02-21T00:35:20;95949.19;;;8.16;65.15
11124;BME280;5616;42.692;23.312;2024-02-21T00:37:45;95943.44;;;8.14;64.81
11124;BME280;5616;42.692;23.312;2024-02-21T00:40:11;95946.88;;;8.21;65.01
11124;BME280;5616;42.692;23.312;2024-02-21T00:42:36;95949.88;;;8.10;64.04
11124;BME280;5616;42.692;23.312;2024-02-21T00:45:02;95938.13;;;8.01;66.23
11124;BME280;5616;42.692;23.312;2024-02-21T00:47:28;95943.25;;;8.01;65.61
11124;BME280;5616;42.692;23.312;2024-02-21T00:49:53;95940.50;;;8.02;66.12
11124;BME280;5616;42.692;23.312;2024-02-21T00:52:19;95936.53;;;8.00;66.40
11124;BME280;5616;42.692;23.312;2024-02-21T00:54:44;95938.13;;;8.01;66.94
11124;BME280;5616;42.692;23.312;2024-02-21T00:57:09;95926.91;;;8.02;66.61
11124;BME280;5616;42.692;23.312;2024-02-21T00:59:35;95941.66;;;8.00;65.93
11124;BME280;5616;42.692;23.312;2024-02-21T01:02:01;95926.22;;;7.93;66.42
11124;BME280;5616;42.692;23.312;2024-02-21T01:04:26;95927.69;;;7.87;65.69
11124;BME280;5616;42.692;23.312;2024-02-21T01:06:51;95922.56;;;7.87;65.90
11124;BME280;5616;42.692;23.312;2024-02-21T01:09:17;95922.84;;;7.93;67.93
11124;BME280;5616;42.692;23.312;2024-02-21T01:11:42;95914.81;;;7.96;65.97
11124;BME280;5616;42.692;23.312;2024-02-21T01:14:08;95924.88;;;7.97;65.53
11124;BME280;5616;42.692;23.312;2024-02-21T01:16:33;95916.03;;;8.00;65.93
11124;BME280;5616;42.692;23.312;2024-02-21T01:18:59;95914.28;;;8.00;66.10
11124;BME280;5616;42.692;23.312;2024-02-21T01:21:24;95903.66;;;8.03;66.21
11124;BME280;5616;42.692;23.312;2024-02-21T01:23:50;95911.78;;;8.07;64.14
11124;BME280;5616;42.692;23.312;2024-02-21T01:26:15;95908.88;;;8.10;63.61
11124;BME280;5616;42.692;23.312;2024-02-21T01:28:41;95909.50;;;8.12;63.37
11124;BME280;5616;42.692;23.312;2024-02-21T01:31:07;95899.59;;;8.09;64.28
11124;BME280;5616;42.692;23.312;2024-02-21T01:33:32;95901.53;;;8.07;63.47
11124;BME280;5616;42.692;23.312;2024-02-21T01:36:03;95899.94;;;8.06;64.08
11124;BME280;5616;42.692;23.312;2024-02-21T01:38:29;95892.09;;;8.07;63.55
11124;BME280;5616;42.692;23.312;2024-02-21T01:40:55;95901.19;;;8.10;64.00
11124;BME280;5616;42.692;23.312;2024-02-21T01:43:21;95893.78;;;8.15;64.88
11124;BME280;5616;42.692;23.312;2024-02-21T01:45:57;95894.72;;;8.14;64.63
11124;BME280;5616;42.692;23.312;2024-02-21T01:48:24;95890.25;;;8.16;64.15
11124;BME280;5616;42.692;23.312;2024-02-21T01:50:51;95886.69;;;8.17;64.23
11124;BME280;5616;42.692;23.312;2024-02-21T01:53:22;95885.56;;;8.19;64.10
11124;BME280;5616;42.692;23.312;2024-02-21T01:55:48;95882.44;;;8.24;64.30
11124;BME280;5616;42.692;23.312;2024-02-21T01:58:14;95887.56;;;8.24;64.47
11124;BME280;5616;42.692;23.312;2024-02-21T02:00:44;95880.88;;;8.23;63.97
11124;BME280;5616;42.692;23.312;2024-02-21T02:03:11;95886.16;;;8.07;63.96
11124;BME280;5616;42.692;23.312;2024-02-21T02:05:47;95890.06;;;8.03;64.65
11124;BME280;5616;42.692;23.312;2024-02-21T02:08:17;95893.25;;;8.05;64.47
11124;BME280;5616;42.692;23.312;2024-02-21T02:10:43;95893.25;;;8.05;63.96
11124;BME280;5616;42.692;23.312;2024-02-21T02:13:09;95890.06;;;8.03;64.75
11124;BME280;5616;42.692;23.312;2024-02-21T02:15:39;95885.81;;;8.10;63.63
11124;BME280;5616;42.692;23.312;2024-02-21T02:18:05;95886.44;;;8.12;64.20
11124;BME280;5616;42.692;23.312;2024-02-21T02:20:31;95883.88;;;8.12;62.84
11124;BME280;5616;42.692;23.312;2024-02-21T02:22:58;95883.88;;;8.12;63.53
11124;BME280;5616;42.692;23.312;2024-02-21T02:25:25;95875.63;;;8.16;62.73
11124;BME280;5616;42.692;23.312;2024-02-21T02:27:51;95878.63;;;8.20;63.30
11124;BME280;5616;42.692;23.312;2024-02-21T02:30:17;95874.44;;;8.12;63.24
11124;BME280;5616;42.692;23.312;2024-02-21T02:32:45;95880.31;;;8.13;63.17
11124;BME280;5616;42.692;23.312;2024-02-21T02:35:12;95865.31;;;8.10;63.22
11124;BME280;5616;42.692;23.312;2024-02-21T02:37:37;95864.06;;;8.06;63.47
11124;BME280;5616;42.692;23.312;2024-02-21T02:40:06;95866.03;;;8.04;63.62
11124;BME280;5616;42.692;23.312;2024-02-21T02:42:31;95872.75;;;8.05;63.79
11124;BME280;5616;42.692;23.312;2024-02-21T02:44:57;95861.88;;;8.03;63.17
11124;BME280;5616;42.692;23.312;2024-02-21T02:47:22;95864.06;;;8.06;64.68
11124;BME280;5616;42.692;23.312;2024-02-21T02:49:48;95870.81;;;8.07;63.20
11124;BME280;5616;42.692;23.312;2024-02-21T02:52:17;95873.97;;;8.09;63.60
11124;BME280;5616;42.692;23.312;2024-02-21T02:54:43;95879.44;;;8.06;63.65
11124;BME280;5616;42.692;23.312;2024-02-21T02:57:09;95875.91;;;8.07;63.17
11124;BME280;5616;42.692;23.312;2024-02-21T02:59:35;95874.31;;;8.06;63.34
11124;BME280;5616;42.692;23.312;2024-02-21T03:02:00;95879.81;;;8.03;64.59
11124;BME280;5616;42.692;23.312;2024-02-21T03:04:26;95871.16;;;8.04;64.22
11124;BME280;5616;42.692;23.312;2024-02-21T03:06:51;95871.41;;;8.09;64.75
11124;BME280;5616;42.692;23.312;2024-02-21T03:09:17;95873.00;;;8.10;64.27
11124;BME280;5616;42.692;23.312;2024-02-21T03:11:42;95877.16;;;8.11;63.53
11124;BME280;5616;42.692;23.312;2024-02-21T03:14:10;95888.66;;;8.15;63.91
11124;BME280;5616;42.692;23.312;2024-02-21T03:16:35;95887.03;;;8.14;63.68
11124;BME280;5616;42.692;23.312;2024-02-21T03:19:01;95882.28;;;8.11;64.15
11124;BME280;5616;42.692;23.312;2024-02-21T03:21:26;95885.00;;;8.09;64.08
11124;BME280;5616;42.692;23.312;2024-02-21T03:23:52;95888.38;;;8.10;64.17
11124;BME280;5616;42.692;23.312;2024-02-21T03:26:17;95885.81;;;8.10;63.72
11124;BME280;5616;42.692;23.312;2024-02-21T03:28:44;95894.94;;;8.12;64.47
11124;BME280;5616;42.692;23.312;2024-02-21T03:31:11;95892.81;;;8.16;63.32
11124;BME280;5616;42.692;23.312;2024-02-21T03:33:42;95890.25;;;8.16;63.78
11124;BME280;5616;42.692;23.312;2024-02-21T03:36:13;95891.00;;;8.16;63.76
11124;BME280;5616;42.692;23.312;2024-02-21T03:38:39;95898.19;;;8.21;62.84
11124;BME280;5616;42.692;23.312;2024-02-21T03:41:05;95898.19;;;8.21;62.77
11124;BME280;5616;42.692;23.312;2024-02-21T03:43:30;95895.38;;;8.16;62.51
11124;BME280;5616;42.692;23.312;2024-02-21T03:45:56;95907.56;;;8.14;63.12
11124;BME280;5616;42.692;23.312;2024-02-21T03:48:21;95907.56;;;8.14;62.90
11124;BME280;5616;42.692;23.312;2024-02-21T03:50:47;95908.50;;;8.13;63.67
11124;BME280;5616;42.692;23.312;2024-02-21T03:53:12;95908.34;;;8.14;63.66
11124;BME280;5616;42.692;23.312;2024-02-21T03:55:38;95905.00;;;8.14;63.92
11124;BME280;5616;42.692;23.312;2024-02-21T03:58:03;95905.63;;;8.16;62.80
11124;BME280;5616;42.692;23.312;2024-02-21T04:00:28;95912.31;;;8.17;63.74
11124;BME280;5616;42.692;23.312;2024-02-21T04:02:54;95900.50;;;8.16;63.34
11124;BME280;5616;42.692;23.312;2024-02-21T04:05:21;95900.81;;;8.13;63.49
11124;BME280;5616;42.692;23.312;2024-02-21T04:07:46;95902.78;;;8.11;63.74
11124;BME280;5616;42.692;23.312;2024-02-21T04:10:12;95903.16;;;8.08;62.94
11124;BME280;5616;42.692;23.312;2024-02-21T04:12:37;95892.63;;;8.03;64.02
11124;BME280;5616;42.692;23.312;2024-02-21T04:15:04;95896.69;;;7.97;63.07
11124;BME280;5616;42.692;23.312;2024-02-21T04:17:29;95904.91;;;7.93;63.05
11124;BME280;5616;42.692;23.312;2024-02-21T04:20:03;95903.31;;;7.92;63.82
11124;BME280;5616;42.692;23.312;2024-02-21T04:22:34;95902.94;;;7.95;62.91
11124;BME280;5616;42.692;23.312;2024-02-21T04:25:00;95894.75;;;7.99;63.21
11124;BME280;5616;42.692;23.312;2024-02-21T04:27:26;95907.38;;;8.01;63.21
11124;BME280;5616;42.692;23.312;2024-02-21T04:29:52;95893.59;;;8.02;62.54
11124;BME280;5616;42.692;23.312;2024-02-21T04:32:18;95900.94;;;8.05;63.00
11124;BME280;5616;42.692;23.312;2024-02-21T04:34:44;95898.19;;;8.06;62.66
11124;BME280;5616;42.692;23.312;2024-02-21T04:37:09;95894.81;;;8.06;62.96
11124;BME280;5616;42.692;23.312;2024-02-21T04:39:35;95896.41;;;8.07;62.63
11124;BME280;5616;42.692;23.312;2024-02-21T04:42:01;95905.19;;;8.12;62.82
11124;BME280;5616;42.692;23.312;2024-02-21T04:44:26;95894.13;;;8.12;62.37
11124;BME280;5616;42.692;23.312;2024-02-21T04:46:51;95904.03;;;8.15;62.25
11124;BME280;5616;42.692;23.312;2024-02-21T04:49:17;95902.06;;;8.17;61.78
11124;BME280;5616;42.692;23.312;2024-02-21T04:51:42;95902.06;;;8.17;62.32
11124;BME280;5616;42.692;23.312;2024-02-21T04:54:08;95908.19;;;8.16;62.35
11124;BME280;5616;42.692;23.312;2024-02-21T04:56:34;95901.03;;;8.11;62.62
11124;BME280;5616;42.692;23.312;2024-02-21T04:59:00;95898.03;;;8.08;62.62
11124;BME280;5616;42.692;23.312;2024-02-21T05:01:25;95905.88;;;8.06;62.66
11124;BME280;5616;42.692;23.312;2024-02-21T05:03:50;95898.97;;;8.07;62.28
11124;BME280;5616;42.692;23.312;2024-02-21T05:06:16;95900.59;;;8.08;62.40
11124;BME280;5616;42.692;23.312;2024-02-21T05:08:42;95904.53;;;8.10;61.58
11124;BME280;5616;42.692;23.312;2024-02-21T05:11:07;95904.72;;;8.09;62.54
11124;BME280;5616;42.692;23.312;2024-02-21T05:13:33;95905.72;;;8.08;62.44
11124;BME280;5616;42.692;23.312;2024-02-21T05:15:58;95918.53;;;8.08;62.80
11124;BME280;5616;42.692;23.312;2024-02-21T05:18:27;95920.09;;;8.09;63.09
11124;BME280;5616;42.692;23.312;2024-02-21T05:20:53;95918.53;;;8.08;62.41
11124;BME280;5616;42.692;23.312;2024-02-21T05:23:18;95914.19;;;8.08;63.15
11124;BME280;5616;42.692;23.312;2024-02-21T05:25:44;95913.41;;;8.08;62.79
11124;BME280;5616;42.692;23.312;2024-02-21T05:28:09;95916.91;;;8.07;62.59
11124;BME280;5616;42.692;23.312;2024-02-21T05:30:35;95924.44;;;8.08;62.81
11124;BME280;5616;42.692;23.312;2024-02-21T05:33:05;95918.53;;;8.08;63.44
11124;BME280;5616;42.692;23.312;2024-02-21T05:35:30;95917.34;;;8.10;62.68
11124;BME280;5616;42.692;23.312;2024-02-21T05:37:56;95914.06;;;8.16;62.24
11124;BME280;5616;42.692;23.312;2024-02-21T05:40:21;95917.44;;;8.17;62.32
11124;BME280;5616;42.692;23.312;2024-02-21T05:42:47;95911.06;;;8.13;62.95
11124;BME280;5616;42.692;23.312;2024-02-21T05:45:12;95916.47;;;8.03;62.62
11124;BME280;5616;42.692;23.312;2024-02-21T05:47:38;95925.56;;;8.06;62.94
11124;BME280;5616;42.692;23.312;2024-02-21T05:50:04;95927.78;;;8.09;62.49
11124;BME280;5616;42.692;23.312;2024-02-21T05:52:30;95925.31;;;8.01;62.97
11124;BME280;5616;42.692;23.312;2024-02-21T05:54:55;95929.88;;;7.90;62.73
11124;BME280;5616;42.692;23.312;2024-02-21T05:57:21;95917.44;;;7.87;62.52
11124;BME280;5616;42.692;23.312;2024-02-21T05:59:46;95934.06;;;7.92;62.44
11124;BME280;5616;42.692;23.312;2024-02-21T06:02:12;95938.22;;;7.93;62.77
11124;BME280;5616;42.692;23.312;2024-02-21T06:04:38;95939.47;;;7.97;63.42
11124;BME280;5616;42.692;23.312;2024-02-21T06:07:04;95943.63;;;7.98;62.55
11124;BME280;5616;42.692;23.312;2024-02-21T06:09:30;95938.22;;;8.07;62.58
11124;BME280;5616;42.692;23.312;2024-02-21T06:11:55;95945.03;;;8.15;61.57
11124;BME280;5616;42.692;23.312;2024-02-21T06:14:21;95951.03;;;8.22;62.09
11124;BME280;5616;42.692;23.312;2024-02-21T06:16:46;95950.31;;;8.28;61.91
11124;BME280;5616;42.692;23.312;2024-02-21T06:19:12;95951.84;;;8.37;62.11
11124;BME280;5616;42.692;23.312;2024-02-21T06:21:38;95943.06;;;8.46;61.35
11124;BME280;5616;42.692;23.312;2024-02-21T06:24:04;95949.44;;;8.50;59.90
11124;BME280;5616;42.692;23.312;2024-02-21T06:26:29;95954.47;;;8.58;61.34
11124;BME280;5616;42.692;23.312;2024-02-21T06:28:55;95950.69;;;8.54;60.06
11124;BME280;5616;42.692;23.312;2024-02-21T06:31:20;95950.31;;;8.57;59.80
11124;BME280;5616;42.692;23.312;2024-02-21T06:33:46;95952.06;;;8.57;58.92
11124;BME280;5616;42.692;23.312;2024-02-21T06:36:11;95958.63;;;8.59;59.20
11124;BME280;5616;42.692;23.312;2024-02-21T06:38:37;95961.81;;;8.61;59.32
11124;BME280;5616;42.692;23.312;2024-02-21T06:41:02;95966.56;;;8.64;59.53
11124;BME280;5616;42.692;23.312;2024-02-21T06:43:28;95971.00;;;8.70;59.58
11124;BME280;5616;42.692;23.312;2024-02-21T06:45:53;95969.41;;;8.69;59.83
11124;BME280;5616;42.692;23.312;2024-02-21T06:48:20;95981.97;;;8.64;59.64
11124;BME280;5616;42.692;23.312;2024-02-21T06:50:45;95976.13;;;8.70;59.96
11124;BME280;5616;42.692;23.312;2024-02-21T06:53:11;95973.19;;;8.73;59.50
11124;BME280;5616;42.692;23.312;2024-02-21T06:55:37;95976.63;;;8.80;58.55
11124;BME280;5616;42.692;23.312;2024-02-21T06:58:02;95982.63;;;8.88;59.68
11124;BME280;5616;42.692;23.312;2024-02-21T07:00:30;95977.88;;;8.84;58.47
11124;BME280;5616;42.692;23.312;2024-02-21T07:02:56;95980.31;;;8.93;59.14
11124;BME280;5616;42.692;23.312;2024-02-21T07:05:22;95980.47;;;9.06;59.83
11124;BME280;5616;42.692;23.312;2024-02-21T07:07:47;95982.94;;;9.14;60.17
11124;BME280;5616;42.692;23.312;2024-02-21T07:10:13;95981.75;;;9.16;57.82
11124;BME280;5616;42.692;23.312;2024-02-21T07:12:38;95983.78;;;9.21;58.86
11124;BME280;5616;42.692;23.312;2024-02-21T07:15:07;95979.50;;;9.28;58.22
11124;BME280;5616;42.692;23.312;2024-02-21T07:17:32;95983.16;;;9.40;58.64
11124;BME280;5616;42.692;23.312;2024-02-21T07:19:58;95971.78;;;9.49;58.51
11124;BME280;5616;42.692;23.312;2024-02-21T07:22:25;95975.81;;;9.58;58.31
11124;BME280;5616;42.692;23.312;2024-02-21T07:24:50;95983.34;;;9.60;57.31
11124;BME280;5616;42.692;23.312;2024-02-21T07:27:16;95981.94;;;9.57;58.45
11124;BME280;5616;42.692;23.312;2024-02-21T07:29:42;95988.66;;;9.37;57.96
11124;BME280;5616;42.692;23.312;2024-02-21T07:32:07;95980.00;;;9.17;58.47
11124;BME280;5616;42.692;23.312;2024-02-21T07:34:33;95980.78;;;9.17;59.48
11124;BME280;5616;42.692;23.312;2024-02-21T07:36:58;95988.06;;;9.14;59.18
11124;BME280;5616;42.692;23.312;2024-02-21T07:39:24;95986.47;;;9.13;59.71
11124;BME280;5616;42.692;23.312;2024-02-21T07:41:49;95992.81;;;9.17;59.74
11124;BME280;5616;42.692;23.312;2024-02-21T07:44:15;95980.84;;;9.24;59.07
11124;BME280;5616;42.692;23.312;2024-02-21T07:46:41;95986.56;;;9.26;58.50
11124;BME280;5616;42.692;23.312;2024-02-21T07:49:06;95982.31;;;9.33;60.02
11124;BME280;5616;42.692;23.312;2024-02-21T07:51:32;95986.28;;;9.35;59.86
11124;BME280;5616;42.692;23.312;2024-02-21T07:53:57;95980.47;;;9.48;58.55
11124;BME280;5616;42.692;23.312;2024-02-21T07:56:23;95979.97;;;9.59;56.81
11124;BME280;5616;42.692;23.312;2024-02-21T07:58:48;95976.91;;;9.70;58.00
11124;BME280;5616;42.692;23.312;2024-02-21T08:01:20;95976.41;;;9.81;57.06
11124;BME280;5616;42.692;23.312;2024-02-21T08:03:48;95966.19;;;9.95;56.58
11124;BME280;5616;42.692;23.312;2024-02-21T08:06:13;95974.97;;;10.07;56.92
11124;BME280;5616;42.692;23.312;2024-02-21T08:08:39;95978.19;;;10.09;55.83
11124;BME280;5616;42.692;23.312;2024-02-21T08:11:05;95974.56;;;10.03;55.69
11124;BME280;5616;42.692;23.312;2024-02-21T08:13:31;95975.81;;;10.14;57.08
11124;BME280;5616;42.692;23.312;2024-02-21T08:15:56;95979.03;;;10.16;55.37
11124;BME280;5616;42.692;23.312;2024-02-21T08:18:22;95978.28;;;10.22;56.19
11124;BME280;5616;42.692;23.312;2024-02-21T08:20:48;95977.13;;;10.31;55.92
11124;BME280;5616;42.692;23.312;2024-02-21T08:23:16;95976.59;;;10.42;55.63
11124;BME280;5616;42.692;23.312;2024-02-21T08:25:42;95973.69;;;10.52;55.58
11124;BME280;5616;42.692;23.312;2024-02-21T08:28:08;95975.69;;;10.56;55.31
11124;BME280;5616;42.692;23.312;2024-02-21T08:30:33;95973.34;;;10.68;54.97
11124;BME280;5616;42.692;23.312;2024-02-21T08:32:59;95972.38;;;10.69;55.02
11124;BME280;5616;42.692;23.312;2024-02-21T08:35:25;95977.78;;;10.80;54.74
11124;BME280;5616;42.692;23.312;2024-02-21T08:37:51;95971.25;;;10.85;54.25
11124;BME280;5616;42.692;23.312;2024-02-21T08:40:16;95978.19;;;10.91;53.79
11124;BME280;5616;42.692;23.312;2024-02-21T08:42:47;95974.84;;;10.97;53.62
11124;BME280;5616;42.692;23.312;2024-02-21T08:45:12;95981.41;;;11.06;53.61
11124;BME280;5616;42.692;23.312;2024-02-21T08:47:41;95972.31;;;11.10;53.28
11124;BME280;5616;42.692;23.312;2024-02-21T08:50:07;95969.78;;;10.62;54.42
11124;BME280;5616;42.692;23.312;2024-02-21T08:52:35;95976.44;;;10.50;54.22
11124;BME280;5616;42.692;23.312;2024-02-21T08:55:00;95967.59;;;10.59;53.82
11124;BME280;5616;42.692;23.312;2024-02-21T08:57:27;95971.00;;;10.66;54.01
11124;BME280;5616;42.692;23.312;2024-02-21T08:59:52;95969.81;;;10.75;54.35
11124;BME280;5616;42.692;23.312;2024-02-21T09:02:18;95974.97;;;10.75;53.57
11124;BME280;5616;42.692;23.312;2024-02-21T09:04:43;95985.69;;;10.86;52.58
11124;BME280;5616;42.692;23.312;2024-02-21T09:07:12;95989.28;;;10.85;54.38
11124;BME280;5616;42.692;23.312;2024-02-21T09:09:37;95984.94;;;10.92;53.42
11124;BME280;5616;42.692;23.312;2024-02-21T09:12:06;95983.56;;;10.96;52.43
11124;BME280;5616;42.692;23.312;2024-02-21T09:14:33;95980.59;;;10.99;54.06
11124;BME280;5616;42.692;23.312;2024-02-21T09:16:58;95982.19;;;11.00;53.79
11124;BME280;5616;42.692;23.312;2024-02-21T09:19:24;95984.56;;;10.95;53.66
11124;BME280;5616;42.692;23.312;2024-02-21T09:21:50;95983.72;;;10.88;51.86
11124;BME280;5616;42.692;23.312;2024-02-21T09:24:15;95976.59;;;10.90;52.61
11124;BME280;5616;42.692;23.312;2024-02-21T09:26:40;95980.59;;;10.92;52.14
11124;BME280;5616;42.692;23.312;2024-02-21T09:29:06;95977.41;;;10.97;53.87
11124;BME280;5616;42.692;23.312;2024-02-21T09:31:32;95972.72;;;11.07;53.10
11124;BME280;5616;42.692;23.312;2024-02-21T09:33:57;95971.13;;;11.19;51.46
11124;BME280;5616;42.692;23.312;2024-02-21T09:36:23;95970.38;;;11.31;51.42
11124;BME280;5616;42.692;23.312;2024-02-21T09:38:48;95974.16;;;11.36;49.88
11124;BME280;5616;42.692;23.312;2024-02-21T09:41:18;95973.94;;;11.37;50.53
11124;BME280;5616;42.692;23.312;2024-02-21T09:43:44;95975.53;;;11.51;51.87
11124;BME280;5616;42.692;23.312;2024-02-21T09:46:17;95975.56;;;11.64;50.26
11124;BME280;5616;42.692;23.312;2024-02-21T09:51:16;95983.09;;;11.59;51.71
11124;BME280;5616;42.692;23.312;2024-02-21T09:53:43;95975.16;;;11.67;51.46
11124;BME280;5616;42.692;23.312;2024-02-21T09:56:10;95974.75;;;11.70;50.28
11124;BME280;5616;42.692;23.312;2024-02-21T09:58:36;95975.59;;;11.77;49.01
11124;BME280;5616;42.692;23.312;2024-02-21T10:01:02;95973.00;;;11.77;50.35
11124;BME280;5616;42.692;23.312;2024-02-21T10:03:32;95968.88;;;11.76;49.04
11124;BME280;5616;42.692;23.312;2024-02-21T10:05:58;95964.06;;;11.60;48.55
11124;BME280;5616;42.692;23.312;2024-02-21T10:08:26;95958.09;;;11.53;49.82
11124;BME280;5616;42.692;23.312;2024-02-21T10:10:52;95964.06;;;11.54;50.39
11124;BME280;5616;42.692;23.312;2024-02-21T10:13:33;95964.84;;;11.54;50.98
11124;BME280;5616;42.692;23.312;2024-02-21T10:16:08;95963.25;;;11.53;48.47
11124;BME280;5616;42.692;23.312;2024-02-21T10:18:34;95961.66;;;11.46;48.54
11124;BME280;5616;42.692;23.312;2024-02-21T10:21:04;95951.38;;;11.32;49.87
11124;BME280;5616;42.692;23.312;2024-02-21T10:23:44;95960.88;;;11.32;48.59
11124;BME280;5616;42.692;23.312;2024-02-21T10:26:10;95949.78;;;11.31;48.07
11124;BME280;5616;42.692;23.312;2024-02-21T10:28:37;95935.47;;;11.22;47.97
11124;BME280;5616;42.692;23.312;2024-02-21T10:31:07;95935.88;;;11.26;50.10
11124;BME280;5616;42.692;23.312;2024-02-21T10:33:33;95924.41;;;11.22;49.13
11124;BME280;5616;42.692;23.312;2024-02-21T10:36:08;95912.13;;;11.24;49.60
11124;BME280;5616;42.692;23.312;2024-02-21T10:38:39;95915.28;;;11.13;49.01
11124;BME280;5616;42.692;23.312;2024-02-21T10:41:05;95909.09;;;11.01;50.10
11124;BME280;5616;42.692;23.312;2024-02-21T10:43:38;95889.13;;;11.16;48.97
11124;BME280;5616;42.692;23.312;2024-02-21T10:46:06;95894.66;;;11.26;48.92
11124;BME280;5616;42.692;23.312;2024-02-21T10:48:41;95884.78;;;11.36;48.19
11124;BME280;5616;42.692;23.312;2024-02-21T10:51:15;95874.84;;;11.53;47.59
11124;BME280;5616;42.692;23.312;2024-02-21T10:54:02;95879.41;;;11.77;47.70
11124;BME280;5616;42.692;23.312;2024-02-21T10:56:34;95876.03;;;11.90;46.49
11124;BME280;5616;42.692;23.312;2024-02-21T10:59:06;95865.25;;;12.06;46.71
11124;BME280;5616;42.692;23.312;2024-02-21T11:01:32;95860.91;;;12.13;43.98
11124;BME280;5616;42.692;23.312;2024-02-21T11:04:11;95870.16;;;12.20;43.84
11124;BME280;5616;42.692;23.312;2024-02-21T11:06:38;95865.81;;;12.21;43.39
11124;BME280;5616;42.692;23.312;2024-02-21T11:09:07;95866.00;;;12.26;44.75
11124;BME280;5616;42.692;23.312;2024-02-21T11:11:38;95854.50;;;12.22;42.17
11124;BME280;5616;42.692;23.312;2024-02-21T11:14:08;95851.69;;;12.30;43.45
11124;BME280;5616;42.692;23.312;2024-02-21T11:16:39;95856.44;;;12.33;43.29
11124;BME280;5616;42.692;23.312;2024-02-21T11:19:09;95851.06;;;12.41;42.27
11124;BME280;5616;42.692;23.312;2024-02-21T11:21:37;95845.25;;;12.52;44.23
11124;BME280;5616;42.692;23.312;2024-02-21T11:24:03;95856.78;;;12.43;41.87
11124;BME280;5616;42.692;23.312;2024-02-21T11:26:30;95851.28;;;12.33;44.66
11124;BME280;5616;42.692;23.312;2024-02-21T11:29:02;95846.75;;;12.22;40.44
11124;BME280;5616;42.692;23.312;2024-02-21T11:31:44;95846.41;;;12.12;43.09
11124;BME280;5616;42.692;23.312;2024-02-21T11:34:17;95841.41;;;12.17;41.48
11124;BME280;5616;42.692;23.312;2024-02-21T11:37:01;95839.03;;;12.22;43.34
11124;BME280;5616;42.692;23.312;2024-02-21T11:39:26;95844.53;;;12.32;44.51
11124;BME280;5616;42.692;23.312;2024-02-21T11:42:05;95836.22;;;12.30;44.21
11124;BME280;5616;42.692;23.312;2024-02-21T11:44:34;95839.38;;;12.32;42.31
11124;BME280;5616;42.692;23.312;2024-02-21T11:47:00;95833.03;;;12.35;42.89
11124;BME280;5616;42.692;23.312;2024-02-21T11:49:28;95833.06;;;12.21;42.52
11124;BME280;5616;42.692;23.312;2024-02-21T11:52:01;95824.38;;;12.16;43.06
11124;BME280;5616;42.692;23.312;2024-02-21T11:54:30;95827.53;;;12.18;41.55
11124;BME280;5616;42.692;23.312;2024-02-21T11:56:55;95821.53;;;12.24;42.22
11124;BME280;5616;42.692;23.312;2024-02-21T11:59:21;95831.84;;;12.24;42.09
11124;BME280;5616;42.692;23.312;2024-02-21T12:01:48;95817.16;;;12.24;42.71
11124;BME280;5616;42.692;23.312;2024-02-21T12:04:13;95818.34;;;12.28;44.13
11124;BME280;5616;42.692;23.312;2024-02-21T12:06:39;95820.53;;;12.25;44.25
11124;BME280;5616;42.692;23.312;2024-02-21T12:09:07;95818.38;;;12.22;43.59
11124;BME280;5616;42.692;23.312;2024-02-21T12:11:36;95815.09;;;12.02;44.40
11124;BME280;5616;42.692;23.312;2024-02-21T12:14:03;95819.06;;;12.04;44.96
11124;BME280;5616;42.692;23.312;2024-02-21T12:16:34;95815.31;;;12.00;44.78
11124;BME280;5616;42.692;23.312;2024-02-21T12:19:00;95821.63;;;12.04;44.02
11124;BME280;5616;42.692;23.312;2024-02-21T12:21:26;95812.53;;;12.02;42.79
11124;BME280;5616;42.692;23.312;2024-02-21T12:23:55;95815.09;;;12.02;44.12
11124;BME280;5616;42.692;23.312;2024-02-21T12:26:21;95809.34;;;12.00;45.15
11124;BME280;5616;42.692;23.312;2024-02-21T12:28:46;95804.56;;;12.03;44.07
11124;BME280;5616;42.692;23.312;2024-02-21T12:31:12;95799.22;;;12.05;41.61
11124;BME280;5616;42.692;23.312;2024-02-21T12:33:38;95811.69;;;12.08;43.52
11124;BME280;5616;42.692;23.312;2024-02-21T12:36:04;95797.06;;;12.02;42.94
11124;BME280;5616;42.692;23.312;2024-02-21T12:38:29;95800.78;;;12.06;42.88
11124;BME280;5616;42.692;23.312;2024-02-21T12:40:55;95798.63;;;12.03;42.46
11124;BME280;5616;42.692;23.312;2024-02-21T12:43:22;95801.84;;;11.98;41.80
11124;BME280;5616;42.692;23.312;2024-02-21T12:45:48;95794.06;;;12.05;43.06
11124;BME280;5616;42.692;23.312;2024-02-21T12:48:14;95802.22;;;12.02;44.62
11124;BME280;5616;42.692;23.312;2024-02-21T12:50:48;95795.88;;;11.98;45.43
11124;BME280;5616;42.692;23.312;2024-02-21T12:53:15;95792.69;;;11.96;46.17
11124;BME280;5616;42.692;23.312;2024-02-21T12:55:41;95786.34;;;11.92;46.37
11124;BME280;5616;42.692;23.312;2024-02-21T12:58:06;95786.38;;;11.85;47.48
11124;BME280;5616;42.692;23.312;2024-02-21T13:00:32;95780.81;;;11.88;46.11
11124;BME280;5616;42.692;23.312;2024-02-21T13:02:58;95783.22;;;11.90;46.47
11124;BME280;5616;42.692;23.312;2024-02-21T13:05:24;95785.19;;;11.88;46.46
11124;BME280;5616;42.692;23.312;2024-02-21T13:07:49;95776.06;;;11.85;46.62